createdAt,value
2017-10-16T00:00:04.885Z,9.52
2017-10-16T00:01:10.457Z,10.13
2017-10-16T00:02:17.015Z,9.27
2017-10-16T00:03:23.371Z,9.05
2017-10-16T00:04:29.125Z,9.48
2017-10-16T00:05:34.889Z,10.32
2017-10-16T00:06:40.644Z,9.07
2017-10-16T00:07:46.465Z,9.75
2017-10-16T00:08:52.224Z,9.60
2017-10-16T00:09:57.967Z,8.80
2017-10-16T00:11:03.716Z,8.35
2017-10-16T00:12:09.497Z,10.23
2017-10-16T00:13:15.273Z,9.15
2017-10-16T00:14:20.836Z,8.95
2017-10-16T00:15:26.589Z,9.27
2017-10-16T00:16:32.126Z,8.32
2017-10-16T00:17:37.931Z,8.27
2017-10-16T00:18:43.707Z,8.68
2017-10-16T00:19:49.512Z,9.23
2017-10-16T00:20:55.296Z,8.73
2017-10-16T00:22:01.044Z,9.40
2017-10-16T00:23:06.810Z,9.43
2017-10-16T00:24:12.587Z,8.85
2017-10-16T00:25:18.336Z,9.48
2017-10-16T00:26:24.093Z,9.57
2017-10-16T00:27:29.857Z,9.70
2017-10-16T00:28:35.608Z,10.35
2017-10-16T00:29:42.168Z,9.02
2017-10-16T00:30:47.920Z,9.25
2017-10-16T00:31:54.471Z,9.32
2017-10-16T00:33:00.228Z,10.10
2017-10-16T00:34:06.766Z,9.82
2017-10-16T00:35:12.562Z,9.45
2017-10-16T00:36:18.337Z,9.90
2017-10-16T00:37:24.085Z,9.88
2017-10-16T00:38:29.849Z,10.07
2017-10-16T00:39:36.197Z,10.85
2017-10-16T00:40:41.981Z,9.68
2017-10-16T00:41:47.779Z,9.48
2017-10-16T00:42:53.529Z,9.73
2017-10-16T00:43:59.857Z,10.18
2017-10-16T00:45:05.444Z,10.45
2017-10-16T00:46:11.234Z,10.00
2017-10-16T00:47:16.816Z,10.63
2017-10-16T00:48:23.340Z,11.10
2017-10-16T00:49:29.107Z,10.38
2017-10-16T00:50:35.643Z,10.52
2017-10-16T00:51:42.198Z,11.68
2017-10-16T00:52:47.969Z,11.30
2017-10-16T00:53:54.498Z,10.43
2017-10-16T00:55:00.257Z,10.95
2017-10-16T00:56:05.443Z,10.70
2017-10-16T00:57:10.546Z,10.63
2017-10-16T00:58:15.996Z,10.65
2017-10-16T00:59:20.885Z,10.60
2017-10-16T01:00:26.722Z,10.38
2017-10-16T01:01:33.248Z,10.85
2017-10-16T01:02:39.032Z,9.60
2017-10-16T01:03:45.360Z,8.77
2017-10-16T01:04:51.881Z,9.48
2017-10-16T01:05:57.657Z,10.05
2017-10-16T01:07:04.199Z,9.40
2017-10-16T01:08:11.024Z,9.30
2017-10-16T01:09:17.409Z,9.30
2017-10-16T01:10:22.829Z,10.02
2017-10-16T01:11:28.458Z,10.07
2017-10-16T01:12:34.233Z,10.05
2017-10-16T01:13:40.010Z,9.23
2017-10-16T01:14:45.415Z,9.77
2017-10-16T01:15:50.316Z,10.32
2017-10-16T01:16:56.086Z,10.10
2017-10-16T01:18:01.845Z,11.02
2017-10-16T01:19:07.632Z,10.18
2017-10-16T01:20:13.060Z,11.10
2017-10-16T01:21:18.591Z,11.65
2017-10-16T01:22:24.065Z,10.90
2017-10-16T01:23:29.562Z,10.27
2017-10-16T01:24:34.468Z,10.15
2017-10-16T01:25:39.535Z,10.60
2017-10-16T01:26:44.609Z,10.18
2017-10-16T01:27:50.794Z,10.77
2017-10-16T01:28:55.871Z,11.48
2017-10-16T01:30:01.465Z,10.13
2017-10-16T01:31:07.804Z,10.98
2017-10-16T01:32:12.703Z,10.15
2017-10-16T01:33:18.879Z,10.70
2017-10-16T01:34:23.961Z,10.35
2017-10-16T01:35:29.828Z,10.93
2017-10-16T01:36:36.021Z,10.65
2017-10-16T01:37:40.908Z,10.40
2017-10-16T01:38:46.536Z,10.00
2017-10-16T01:39:51.965Z,11.30
2017-10-16T01:40:58.171Z,11.95
2017-10-16T01:42:03.872Z,10.98
2017-10-16T01:43:09.712Z,10.45
2017-10-16T01:44:15.889Z,10.82
2017-10-16T01:45:21.316Z,10.75
2017-10-16T01:46:26.786Z,11.02
2017-10-16T01:47:31.901Z,11.90
2017-10-16T01:48:36.975Z,11.45
2017-10-16T01:49:43.188Z,11.43
2017-10-16T01:50:48.256Z,12.02
2017-10-16T01:51:54.170Z,11.02
2017-10-16T01:52:59.252Z,11.30
2017-10-16T01:54:04.328Z,10.82
2017-10-16T01:55:09.746Z,12.25
2017-10-16T01:56:14.836Z,12.63
2017-10-16T01:57:19.932Z,10.65
2017-10-16T01:58:25.697Z,11.15
2017-10-16T01:59:31.450Z,11.85
2017-10-16T02:00:36.876Z,12.10
2017-10-16T02:01:42.673Z,11.90
2017-10-16T02:02:49.229Z,11.18
2017-10-16T02:03:54.999Z,11.40
2017-10-16T02:05:01.349Z,10.90
2017-10-16T02:06:07.907Z,10.90
2017-10-16T02:07:13.665Z,10.88
2017-10-16T02:08:19.469Z,11.90
2017-10-16T02:09:25.242Z,11.12
2017-10-16T02:10:31.764Z,11.82
2017-10-16T02:11:37.541Z,12.40
2017-10-16T02:12:44.071Z,12.25
2017-10-16T02:13:49.873Z,11.43
2017-10-16T02:14:55.643Z,11.35
2017-10-16T02:16:01.404Z,11.65
2017-10-16T02:17:07.181Z,11.65
2017-10-16T02:18:12.944Z,12.70
2017-10-16T02:19:18.736Z,12.37
2017-10-16T02:20:25.286Z,11.23
2017-10-16T02:21:31.814Z,11.05
2017-10-16T02:22:37.625Z,11.30
2017-10-16T02:23:43.352Z,11.52
2017-10-16T02:24:49.756Z,11.15
2017-10-16T02:25:55.307Z,10.93
2017-10-16T02:27:01.081Z,11.18
2017-10-16T02:28:06.838Z,10.55
2017-10-16T02:29:13.364Z,11.15
2017-10-16T02:30:18.813Z,11.25
2017-10-16T02:31:25.342Z,10.60
2017-10-16T02:32:31.111Z,10.90
2017-10-16T02:33:36.669Z,11.45
2017-10-16T02:34:43.533Z,10.77
2017-10-16T02:35:49.661Z,11.00
2017-10-16T02:36:56.531Z,10.80
2017-10-16T02:38:02.589Z,11.07
2017-10-16T02:39:08.159Z,11.07
2017-10-16T02:40:13.915Z,11.48
2017-10-16T02:41:19.724Z,10.27
2017-10-16T02:42:25.484Z,10.63
2017-10-16T02:43:31.248Z,10.57
2017-10-16T02:44:37.012Z,11.40
2017-10-16T02:45:42.425Z,10.77
2017-10-16T02:46:48.245Z,12.23
2017-10-16T02:47:54.006Z,11.65
2017-10-16T02:48:59.785Z,11.48
2017-10-16T02:50:05.565Z,11.20
2017-10-16T02:51:11.134Z,11.30
2017-10-16T02:52:16.748Z,12.15
2017-10-16T02:53:22.513Z,11.57
2017-10-16T02:54:28.292Z,11.77
2017-10-16T02:55:34.837Z,11.38
2017-10-16T02:56:42.105Z,12.35
2017-10-16T02:57:47.913Z,12.82
2017-10-16T02:58:53.682Z,11.40
2017-10-16T02:59:59.452Z,12.88
2017-10-16T03:01:05.209Z,11.20
2017-10-16T03:02:10.976Z,12.15
2017-10-16T03:03:16.764Z,10.52
2017-10-16T03:04:22.536Z,11.55
2017-10-16T03:05:28.302Z,11.85
2017-10-16T03:06:34.075Z,11.35
2017-10-16T03:07:39.841Z,12.40
2017-10-16T03:08:45.646Z,10.95
2017-10-16T03:09:51.409Z,11.68
2017-10-16T03:10:57.203Z,11.30
2017-10-16T03:12:03.023Z,12.02
2017-10-16T03:13:09.552Z,12.50
2017-10-16T03:14:15.358Z,11.88
2017-10-16T03:15:21.123Z,11.90
2017-10-16T03:16:26.721Z,11.43
2017-10-16T03:17:32.489Z,11.80
2017-10-16T03:18:38.254Z,11.57
2017-10-16T03:19:44.052Z,10.93
2017-10-16T03:20:49.816Z,12.10
2017-10-16T03:21:55.592Z,12.82
2017-10-16T03:23:02.917Z,11.50
2017-10-16T03:24:08.707Z,11.43
2017-10-16T03:25:14.488Z,10.60
2017-10-16T03:26:20.266Z,11.70
2017-10-16T03:27:26.041Z,10.15
2017-10-16T03:28:31.856Z,10.82
2017-10-16T03:29:37.445Z,12.63
2017-10-16T03:30:44.008Z,11.80
2017-10-16T03:31:50.392Z,11.12
2017-10-16T03:32:55.979Z,11.15
2017-10-16T03:34:03.245Z,12.10
2017-10-16T03:35:09.019Z,10.98
2017-10-16T03:36:15.590Z,11.50
2017-10-16T03:37:21.364Z,11.60
2017-10-16T03:38:26.951Z,11.52
2017-10-16T03:39:33.293Z,12.25
2017-10-16T03:40:39.069Z,11.55
2017-10-16T03:41:44.867Z,10.93
2017-10-16T03:42:50.660Z,11.70
2017-10-16T03:43:56.420Z,11.40
2017-10-16T03:45:02.188Z,11.30
2017-10-16T03:46:08.758Z,11.60
2017-10-16T03:47:14.569Z,12.30
2017-10-16T03:48:20.328Z,11.68
2017-10-16T03:49:26.080Z,11.82
2017-10-16T03:50:31.844Z,11.65
2017-10-16T03:51:38.385Z,12.25
2017-10-16T03:52:44.170Z,11.38
2017-10-16T03:53:49.931Z,11.50
2017-10-16T03:54:55.726Z,12.18
2017-10-16T03:56:02.253Z,11.45
2017-10-16T03:57:08.020Z,12.27
2017-10-16T03:58:14.404Z,11.50
2017-10-16T03:59:20.182Z,12.20
2017-10-16T04:00:25.951Z,11.10
2017-10-16T04:01:31.713Z,11.10
2017-10-16T04:02:38.257Z,10.98
2017-10-16T04:03:44.052Z,12.35
2017-10-16T04:04:49.821Z,11.93
2017-10-16T04:05:55.585Z,11.60
2017-10-16T04:07:01.356Z,12.25
2017-10-16T04:08:07.121Z,12.40
2017-10-16T04:09:12.914Z,12.60
2017-10-16T04:10:18.684Z,12.82
2017-10-16T04:11:24.204Z,12.88
2017-10-16T04:12:30.740Z,12.88
2017-10-16T04:13:36.509Z,12.98
2017-10-16T04:14:42.869Z,12.93
2017-10-16T04:15:48.640Z,13.70
2017-10-16T04:16:54.223Z,11.55
2017-10-16T04:17:59.993Z,11.95
2017-10-16T04:19:05.765Z,12.13
2017-10-16T04:20:11.370Z,12.52
2017-10-16T04:21:17.137Z,12.63
2017-10-16T04:22:22.716Z,12.05
2017-10-16T04:23:28.507Z,12.57
2017-10-16T04:24:34.281Z,11.65
2017-10-16T04:25:41.100Z,13.68
2017-10-16T04:26:46.869Z,12.00
2017-10-16T04:27:52.638Z,13.98
2017-10-16T04:28:58.416Z,12.90
2017-10-16T04:30:04.998Z,13.02
2017-10-16T04:31:10.849Z,14.05
2017-10-16T04:32:16.612Z,13.23
2017-10-16T04:33:22.435Z,13.48
2017-10-16T04:34:28.192Z,13.55
2017-10-16T04:35:33.959Z,15.35
2017-10-16T04:36:40.165Z,15.18
2017-10-16T04:37:45.974Z,13.57
2017-10-16T04:38:51.733Z,14.13
2017-10-16T04:39:57.520Z,14.77
2017-10-16T04:41:03.318Z,14.52
2017-10-16T04:42:09.145Z,14.48
2017-10-16T04:43:15.681Z,14.52
2017-10-16T04:44:21.074Z,15.15
2017-10-16T04:45:26.870Z,14.02
2017-10-16T04:46:32.454Z,15.30
2017-10-16T04:47:38.268Z,15.05
2017-10-16T04:48:44.629Z,14.35
2017-10-16T04:49:50.680Z,14.50
2017-10-16T04:50:57.205Z,14.55
2017-10-16T04:52:03.004Z,14.00
2017-10-16T04:53:08.810Z,14.02
2017-10-16T04:54:15.140Z,14.43
2017-10-16T04:55:20.912Z,14.40
2017-10-16T04:56:27.102Z,15.48
2017-10-16T04:57:32.876Z,14.07
2017-10-16T04:58:38.660Z,14.82
2017-10-16T04:59:44.474Z,15.35
2017-10-16T05:00:51.028Z,14.45
2017-10-16T05:01:56.788Z,14.60
2017-10-16T05:03:03.116Z,14.80
2017-10-16T05:04:08.916Z,17.08
2017-10-16T05:05:14.685Z,13.95
2017-10-16T05:06:20.394Z,14.82
2017-10-16T05:07:26.170Z,15.15
2017-10-16T05:08:31.940Z,14.70
2017-10-16T05:09:37.757Z,15.63
2017-10-16T05:10:43.774Z,14.57
2017-10-16T05:11:49.552Z,15.18
2017-10-16T05:12:55.355Z,14.50
2017-10-16T05:14:01.164Z,16.15
2017-10-16T05:15:06.745Z,17.90
2017-10-16T05:16:12.521Z,16.27
2017-10-16T05:17:18.379Z,16.02
2017-10-16T05:18:24.773Z,15.52
2017-10-16T05:19:30.557Z,17.35
2017-10-16T05:20:36.369Z,15.95
2017-10-16T05:21:42.141Z,19.65
2017-10-16T05:22:47.917Z,21.65
2017-10-16T05:23:54.508Z,16.27
2017-10-16T05:25:00.267Z,16.45
2017-10-16T05:26:05.871Z,16.12
2017-10-16T05:27:11.649Z,16.12
2017-10-16T05:28:17.419Z,15.60
2017-10-16T05:29:23.417Z,16.08
2017-10-16T05:30:29.795Z,16.62
2017-10-16T05:31:35.617Z,16.80
2017-10-16T05:32:41.380Z,15.40
2017-10-16T05:33:47.255Z,16.45
2017-10-16T05:34:56.054Z,16.10
2017-10-16T05:36:01.818Z,15.93
2017-10-16T05:37:07.624Z,16.85
2017-10-16T05:38:13.394Z,15.55
2017-10-16T05:39:19.183Z,16.80
2017-10-16T05:40:24.963Z,15.20
2017-10-16T05:41:31.162Z,15.40
2017-10-16T05:42:37.333Z,14.90
2017-10-16T05:43:43.122Z,15.75
2017-10-16T05:44:48.552Z,16.17
2017-10-16T05:45:53.469Z,16.02
2017-10-16T05:46:58.597Z,16.27
2017-10-16T05:48:05.165Z,14.77
2017-10-16T05:49:10.977Z,15.20
2017-10-16T05:50:16.741Z,14.77
2017-10-16T05:51:22.594Z,15.57
2017-10-16T05:52:28.011Z,15.73
2017-10-16T05:53:33.813Z,17.35
2017-10-16T05:54:39.872Z,15.60
2017-10-16T05:55:45.401Z,17.67
2017-10-16T05:56:51.165Z,15.90
2017-10-16T05:57:56.932Z,16.58
2017-10-16T05:59:02.787Z,16.40
2017-10-16T06:00:08.201Z,16.37
2017-10-16T06:01:14.003Z,16.62
2017-10-16T06:02:19.770Z,14.48
2017-10-16T06:03:25.533Z,15.88
2017-10-16T06:04:31.316Z,16.90
2017-10-16T06:05:36.408Z,15.32
2017-10-16T06:06:41.824Z,16.58
2017-10-16T06:07:47.249Z,15.43
2017-10-16T06:08:52.321Z,16.50
2017-10-16T06:09:58.190Z,17.23
2017-10-16T06:11:03.952Z,17.77
2017-10-16T06:12:09.726Z,15.85
2017-10-16T06:13:15.149Z,17.85
2017-10-16T06:14:20.924Z,16.92
2017-10-16T06:15:27.314Z,17.20
2017-10-16T06:16:32.548Z,15.90
2017-10-16T06:17:38.133Z,17.27
2017-10-16T06:18:43.885Z,17.35
2017-10-16T06:19:50.442Z,17.20
2017-10-16T06:20:55.909Z,17.92
2017-10-16T06:22:01.678Z,17.02
2017-10-16T06:23:07.261Z,16.55
2017-10-16T06:24:13.807Z,15.00
2017-10-16T06:25:19.564Z,17.45
2017-10-16T06:26:26.212Z,16.83
2017-10-16T06:27:31.757Z,16.12
2017-10-16T06:28:38.256Z,16.15
2017-10-16T06:29:43.474Z,16.23
2017-10-16T06:30:49.301Z,16.48
2017-10-16T06:31:55.507Z,16.33
2017-10-16T06:33:00.942Z,16.58
2017-10-16T06:34:06.696Z,18.75
2017-10-16T06:35:12.959Z,17.10
2017-10-16T06:36:18.725Z,16.70
2017-10-16T06:37:25.505Z,16.87
2017-10-16T06:38:32.020Z,16.40
2017-10-16T06:39:37.789Z,17.45
2017-10-16T06:40:43.220Z,17.42
2017-10-16T06:41:48.992Z,17.55
2017-10-16T06:42:54.780Z,16.58
2017-10-16T06:44:00.626Z,17.45
2017-10-16T06:45:07.172Z,16.70
2017-10-16T06:46:12.363Z,16.85
2017-10-16T06:47:18.133Z,16.67
2017-10-16T06:48:23.749Z,17.95
2017-10-16T06:49:29.520Z,17.27
2017-10-16T06:50:35.288Z,17.77
2017-10-16T06:51:41.045Z,17.02
2017-10-16T06:52:47.589Z,17.98
2017-10-16T06:53:54.158Z,15.90
2017-10-16T06:55:00.496Z,17.73
2017-10-16T06:56:07.590Z,16.35
2017-10-16T06:57:13.915Z,17.60
2017-10-16T06:58:19.693Z,16.58
2017-10-16T06:59:26.269Z,17.67
2017-10-16T07:00:31.841Z,17.05
2017-10-16T07:01:37.600Z,16.58
2017-10-16T07:02:43.372Z,17.20
2017-10-16T07:03:49.725Z,17.25
2017-10-16T07:04:56.280Z,17.08
2017-10-16T07:06:02.819Z,16.08
2017-10-16T07:07:08.393Z,15.80
2017-10-16T07:08:14.169Z,16.77
2017-10-16T07:09:20.189Z,17.08
2017-10-16T07:10:26.005Z,15.07
2017-10-16T07:11:31.761Z,16.55
2017-10-16T07:12:37.534Z,16.25
2017-10-16T07:13:43.120Z,14.80
2017-10-16T07:14:49.661Z,15.75
2017-10-16T07:15:55.365Z,15.60
2017-10-16T07:17:01.132Z,16.55
2017-10-16T07:18:06.910Z,15.20
2017-10-16T07:19:13.445Z,15.30
2017-10-16T07:20:19.205Z,13.85
2017-10-16T07:21:25.769Z,14.00
2017-10-16T07:22:32.308Z,14.43
2017-10-16T07:23:39.576Z,13.73
2017-10-16T07:24:45.377Z,13.73
2017-10-16T07:25:51.149Z,15.23
2017-10-16T07:26:56.936Z,14.05
2017-10-16T07:28:03.466Z,13.65
2017-10-16T07:29:09.232Z,13.10
2017-10-16T07:30:15.430Z,12.93
2017-10-16T07:31:21.205Z,14.05
2017-10-16T07:32:27.004Z,14.43
2017-10-16T07:33:32.781Z,12.60
2017-10-16T07:34:38.554Z,13.52
2017-10-16T07:35:44.893Z,13.05
2017-10-16T07:36:50.669Z,13.77
2017-10-16T07:37:56.314Z,13.20
2017-10-16T07:39:02.083Z,13.43
2017-10-16T07:40:07.857Z,11.85
2017-10-16T07:41:13.648Z,12.05
2017-10-16T07:42:19.424Z,12.80
2017-10-16T07:43:25.029Z,12.30
2017-10-16T07:44:30.804Z,11.70
2017-10-16T07:45:36.381Z,12.48
2017-10-16T07:46:42.734Z,11.43
2017-10-16T07:47:49.311Z,11.10
2017-10-16T07:48:55.105Z,11.30
2017-10-16T07:50:00.910Z,11.23
2017-10-16T07:51:06.675Z,11.27
2017-10-16T07:52:12.440Z,12.45
2017-10-16T07:53:18.205Z,12.00
2017-10-16T07:54:24.766Z,11.15
2017-10-16T07:55:31.285Z,10.88
2017-10-16T07:56:37.431Z,12.02
2017-10-16T07:57:42.992Z,11.30
2017-10-16T07:58:48.780Z,11.23
2017-10-16T07:59:54.569Z,11.10
2017-10-16T08:01:01.107Z,11.90
2017-10-16T08:02:06.865Z,9.90
2017-10-16T08:03:12.624Z,11.65
2017-10-16T08:04:19.162Z,11.82
2017-10-16T08:05:25.720Z,12.07
2017-10-16T08:06:31.527Z,10.77
2017-10-16T08:07:37.301Z,10.60
2017-10-16T08:08:43.057Z,10.60
2017-10-16T08:09:48.824Z,10.60
2017-10-16T08:10:55.177Z,11.18
2017-10-16T08:12:01.719Z,10.70
2017-10-16T08:13:07.756Z,11.10
2017-10-16T08:14:13.516Z,11.12
2017-10-16T08:15:19.276Z,10.52
2017-10-16T08:16:25.837Z,10.82
2017-10-16T08:17:32.353Z,9.82
2017-10-16T08:18:38.124Z,10.32
2017-10-16T08:19:43.907Z,9.27
2017-10-16T08:20:49.665Z,10.32
2017-10-16T08:21:55.453Z,10.32
2017-10-16T08:23:01.644Z,10.40
2017-10-16T08:24:06.721Z,10.25
2017-10-16T08:25:12.127Z,9.65
2017-10-16T08:26:17.265Z,10.38
2017-10-16T08:27:22.364Z,10.18
2017-10-16T08:28:27.425Z,9.95
2017-10-16T08:29:33.206Z,9.55
2017-10-16T08:30:39.389Z,10.00
2017-10-16T08:31:44.797Z,9.43
2017-10-16T08:32:50.248Z,10.73
2017-10-16T08:33:55.329Z,9.40
2017-10-16T08:35:00.400Z,9.20
2017-10-16T08:36:05.472Z,10.45
2017-10-16T08:37:10.357Z,10.10
2017-10-16T08:38:15.265Z,10.57
2017-10-16T08:39:20.483Z,10.95
2017-10-16T08:40:26.037Z,9.48
2017-10-16T08:41:31.097Z,9.85
2017-10-16T08:42:35.989Z,10.77
2017-10-16T08:43:41.080Z,9.55
2017-10-16T08:44:46.912Z,9.57
2017-10-16T08:45:53.097Z,9.98
2017-10-16T08:46:58.171Z,9.07
2017-10-16T08:48:04.071Z,10.00
2017-10-16T08:49:09.514Z,10.32
2017-10-16T08:50:15.317Z,10.27
2017-10-16T08:51:21.164Z,11.05
2017-10-16T08:52:25.986Z,10.75
2017-10-16T08:53:31.064Z,9.82
2017-10-16T08:54:36.498Z,9.55
2017-10-16T08:55:41.916Z,9.93
2017-10-16T08:56:47.920Z,10.88
2017-10-16T08:57:53.603Z,9.95
2017-10-16T08:58:59.015Z,9.60
2017-10-16T09:00:04.549Z,10.05
2017-10-16T09:01:09.972Z,10.32
2017-10-16T09:02:15.041Z,10.23
2017-10-16T09:03:20.137Z,9.88
2017-10-16T09:04:25.567Z,10.38
2017-10-16T09:05:30.808Z,10.45
2017-10-16T09:06:35.724Z,9.95
2017-10-16T09:07:40.780Z,9.80
2017-10-16T09:08:46.584Z,10.70
2017-10-16T09:09:51.652Z,10.85
2017-10-16T09:10:56.745Z,10.73
2017-10-16T09:12:01.821Z,10.40
2017-10-16T09:13:07.242Z,10.00
2017-10-16T09:14:12.325Z,10.43
2017-10-16T09:15:17.388Z,9.88
2017-10-16T09:16:22.839Z,11.48
2017-10-16T09:17:28.244Z,10.57
2017-10-16T09:18:33.327Z,10.65
2017-10-16T09:19:38.205Z,10.50
2017-10-16T09:20:43.287Z,11.38
2017-10-16T09:21:48.384Z,10.90
2017-10-16T09:22:54.228Z,10.80
2017-10-16T09:24:00.116Z,10.10
2017-10-16T09:25:05.210Z,9.77
2017-10-16T09:26:10.044Z,9.75
2017-10-16T09:27:15.497Z,9.82
2017-10-16T09:28:20.561Z,9.65
2017-10-16T09:29:26.038Z,9.95
2017-10-16T09:30:31.460Z,10.65
2017-10-16T09:31:36.884Z,10.40
2017-10-16T09:32:42.568Z,10.60
2017-10-16T09:33:47.981Z,10.70
2017-10-16T09:34:53.047Z,9.60
2017-10-16T09:35:58.134Z,10.52
2017-10-16T09:37:03.224Z,10.10
2017-10-16T09:38:08.326Z,10.27
2017-10-16T09:39:13.420Z,10.63
2017-10-16T09:40:18.494Z,11.35
2017-10-16T09:41:23.584Z,10.60
2017-10-16T09:42:28.472Z,10.00
2017-10-16T09:43:33.924Z,11.05
2017-10-16T09:44:39.337Z,9.70
2017-10-16T09:45:44.220Z,10.05
2017-10-16T09:46:49.631Z,9.85
2017-10-16T09:47:54.697Z,10.60
2017-10-16T09:49:00.561Z,10.55
2017-10-16T09:50:06.401Z,10.27
2017-10-16T09:51:11.478Z,10.07
2017-10-16T09:52:16.541Z,10.73
2017-10-16T09:53:22.731Z,11.25
2017-10-16T09:54:28.198Z,11.05
2017-10-16T09:55:33.964Z,10.57
2017-10-16T09:56:40.148Z,26.60
2017-10-16T09:57:45.219Z,14.70
2017-10-16T09:58:50.662Z,12.75
2017-10-16T09:59:57.272Z,11.20
2017-10-16T10:01:02.697Z,10.57
2017-10-16T10:02:07.593Z,11.15
2017-10-16T10:03:13.783Z,10.95
2017-10-16T10:04:19.196Z,10.73
2017-10-16T10:05:24.668Z,11.75
2017-10-16T10:06:30.449Z,12.23
2017-10-16T10:07:35.329Z,11.40
2017-10-16T10:08:40.418Z,11.85
2017-10-16T10:09:45.534Z,11.60
2017-10-16T10:10:51.442Z,11.52
2017-10-16T10:11:56.874Z,11.43
2017-10-16T10:13:01.960Z,12.20
2017-10-16T10:14:07.045Z,12.10
2017-10-16T10:15:13.632Z,11.70
2017-10-16T10:16:19.113Z,11.85
2017-10-16T10:17:24.554Z,11.27
2017-10-16T10:18:30.459Z,10.93
2017-10-16T10:19:35.549Z,12.05
2017-10-16T10:20:41.307Z,11.82
2017-10-16T10:21:47.858Z,12.23
2017-10-16T10:22:54.221Z,13.60
2017-10-16T10:24:00.581Z,11.75
2017-10-16T10:25:06.779Z,12.10
2017-10-16T10:26:12.551Z,12.20
2017-10-16T10:27:18.176Z,12.52
2017-10-16T10:28:23.942Z,11.77
2017-10-16T10:29:30.486Z,12.13
2017-10-16T10:30:36.328Z,12.57
2017-10-16T10:31:42.693Z,12.73
2017-10-16T10:32:48.488Z,13.10
2017-10-16T10:33:54.291Z,13.60
2017-10-16T10:35:00.849Z,12.73
2017-10-16T10:36:07.400Z,12.27
2017-10-16T10:37:13.175Z,12.75
2017-10-16T10:38:18.976Z,12.23
2017-10-16T10:39:24.744Z,11.60
2017-10-16T10:40:30.518Z,12.48
2017-10-16T10:41:36.289Z,12.18
2017-10-16T10:42:42.093Z,12.07
2017-10-16T10:43:47.873Z,12.20
2017-10-16T10:44:53.649Z,11.30
2017-10-16T10:45:59.420Z,12.40
2017-10-16T10:47:05.204Z,12.07
2017-10-16T10:48:10.974Z,12.43
2017-10-16T10:49:17.560Z,12.55
2017-10-16T10:50:23.336Z,12.02
2017-10-16T10:51:29.120Z,12.35
2017-10-16T10:52:35.652Z,12.10
2017-10-16T10:53:42.924Z,12.25
2017-10-16T10:54:48.385Z,12.45
2017-10-16T10:55:54.930Z,12.15
2017-10-16T10:57:00.705Z,12.07
2017-10-16T10:58:06.472Z,12.60
2017-10-16T10:59:12.245Z,11.55
2017-10-16T11:00:18.120Z,12.60
2017-10-16T11:01:24.650Z,11.55
2017-10-16T11:02:31.217Z,12.63
2017-10-16T11:03:37.795Z,12.60
2017-10-16T11:04:44.329Z,12.80
2017-10-16T11:05:50.128Z,11.98
2017-10-16T11:06:55.896Z,12.07
2017-10-16T11:08:01.693Z,12.25
2017-10-16T11:09:07.873Z,12.93
2017-10-16T11:10:13.742Z,11.88
2017-10-16T11:11:19.554Z,12.35
2017-10-16T11:12:25.334Z,11.93
2017-10-16T11:13:30.925Z,11.35
2017-10-16T11:14:36.685Z,12.13
2017-10-16T11:15:41.556Z,10.77
2017-10-16T11:16:48.126Z,12.30
2017-10-16T11:17:54.309Z,11.10
2017-10-16T11:19:00.080Z,10.52
2017-10-16T11:20:05.857Z,11.20
2017-10-16T11:21:11.535Z,10.80
2017-10-16T11:22:17.656Z,10.70
2017-10-16T11:23:23.489Z,10.80
2017-10-16T11:24:29.367Z,10.73
2017-10-16T11:25:34.428Z,11.52
2017-10-16T11:26:39.513Z,10.60
2017-10-16T11:27:44.603Z,11.23
2017-10-16T11:28:49.943Z,9.98
2017-10-16T11:29:55.799Z,10.60
2017-10-16T11:31:01.597Z,10.13
2017-10-16T11:32:07.013Z,9.93
2017-10-16T11:33:12.469Z,11.02
2017-10-16T11:34:17.578Z,11.25
2017-10-16T11:35:22.644Z,10.43
2017-10-16T11:36:27.738Z,10.70
2017-10-16T11:37:33.213Z,10.70
2017-10-16T11:38:38.573Z,10.60
2017-10-16T11:39:43.980Z,9.77
2017-10-16T11:40:49.617Z,10.98
2017-10-16T11:41:55.796Z,10.75
2017-10-16T11:43:00.877Z,9.85
2017-10-16T11:44:05.966Z,10.93
2017-10-16T11:45:11.038Z,10.02
2017-10-16T11:46:17.227Z,10.70
2017-10-16T11:47:22.649Z,10.60
2017-10-16T11:48:27.704Z,9.77
2017-10-16T11:49:32.808Z,10.60
2017-10-16T11:50:38.220Z,10.25
2017-10-16T11:51:44.060Z,9.35
2017-10-16T11:52:50.238Z,10.07
2017-10-16T11:53:55.664Z,10.10
2017-10-16T11:55:02.200Z,9.55
2017-10-16T11:56:08.383Z,9.68
2017-10-16T11:57:13.462Z,10.10
2017-10-16T11:58:18.936Z,9.98
2017-10-16T11:59:24.356Z,10.55
2017-10-16T12:00:30.265Z,10.68
2017-10-16T12:01:35.372Z,9.60
2017-10-16T12:02:40.502Z,10.63
2017-10-16T12:03:45.737Z,10.70
2017-10-16T12:04:50.803Z,10.05
2017-10-16T12:05:56.414Z,10.73
2017-10-16T12:07:01.494Z,10.65
2017-10-16T12:08:06.574Z,10.27
2017-10-16T12:09:11.677Z,10.02
2017-10-16T12:10:16.793Z,9.13
2017-10-16T12:11:21.948Z,10.13
2017-10-16T12:12:27.061Z,9.77
2017-10-16T12:13:32.165Z,10.10
2017-10-16T12:14:37.237Z,9.05
2017-10-16T12:15:42.304Z,9.82
2017-10-16T12:16:47.824Z,8.98
2017-10-16T12:17:53.766Z,9.20
2017-10-16T12:18:59.365Z,9.80
2017-10-16T12:20:04.497Z,9.80
2017-10-16T12:21:09.557Z,9.60
2017-10-16T12:22:15.592Z,9.90
2017-10-16T12:23:21.492Z,9.25
2017-10-16T12:24:26.558Z,9.02
2017-10-16T12:25:31.753Z,9.40
2017-10-16T12:26:37.324Z,9.73
2017-10-16T12:27:42.407Z,9.80
2017-10-16T12:28:47.812Z,9.32
2017-10-16T12:29:53.559Z,9.88
2017-10-16T12:30:58.964Z,9.57
2017-10-16T12:32:05.038Z,10.23
2017-10-16T12:33:10.154Z,9.85
2017-10-16T12:34:15.243Z,9.88
2017-10-16T12:35:20.049Z,9.73
2017-10-16T12:36:24.892Z,10.63
2017-10-16T12:37:29.953Z,9.60
2017-10-16T12:38:35.050Z,10.50
2017-10-16T12:39:40.132Z,9.30
2017-10-16T12:40:45.216Z,9.80
2017-10-16T12:41:51.081Z,9.63
2017-10-16T12:42:56.153Z,9.35
2017-10-16T12:44:01.278Z,9.40
2017-10-16T12:45:06.353Z,9.88
2017-10-16T12:46:11.416Z,9.57
2017-10-16T12:47:16.480Z,9.75
2017-10-16T12:48:22.512Z,10.25
2017-10-16T12:49:27.677Z,10.70
2017-10-16T12:50:32.736Z,9.70
2017-10-16T12:51:37.796Z,9.55
2017-10-16T12:52:42.425Z,9.57
2017-10-16T12:53:48.056Z,9.77
2017-10-16T12:54:54.296Z,9.93
2017-10-16T12:56:00.136Z,10.32
2017-10-16T12:57:05.540Z,8.85
2017-10-16T12:58:10.614Z,9.90
2017-10-16T12:59:16.440Z,8.90
2017-10-16T13:00:21.553Z,8.43
2017-10-16T13:01:26.672Z,10.27
2017-10-16T13:02:31.476Z,9.88
2017-10-16T13:03:36.610Z,9.70
2017-10-16T13:04:42.029Z,9.93
2017-10-16T13:05:46.870Z,9.93
2017-10-16T13:06:51.979Z,9.65
2017-10-16T13:07:56.826Z,10.25
2017-10-16T13:09:01.939Z,9.75
2017-10-16T13:10:07.017Z,9.68
2017-10-16T13:11:12.888Z,9.95
2017-10-16T13:12:17.725Z,11.45
2017-10-16T13:13:22.789Z,9.80
2017-10-16T13:14:28.682Z,8.93
2017-10-16T13:15:33.636Z,9.77
2017-10-16T13:16:39.335Z,10.73
2017-10-16T13:17:44.404Z,10.63
2017-10-16T13:18:49.320Z,11.12
2017-10-16T13:19:55.148Z,9.70
2017-10-16T13:20:59.820Z,9.55
2017-10-16T13:22:05.489Z,9.85
2017-10-16T13:23:10.550Z,9.68
2017-10-16T13:24:15.645Z,9.38
2017-10-16T13:25:20.696Z,9.00
2017-10-16T13:26:26.237Z,9.70
2017-10-16T13:27:31.391Z,9.30
2017-10-16T13:28:37.055Z,9.60
2017-10-16T13:29:42.124Z,10.32
2017-10-16T13:30:47.217Z,9.57
2017-10-16T13:31:52.293Z,10.20
2017-10-16T13:32:57.210Z,9.27
2017-10-16T13:34:02.103Z,9.23
2017-10-16T13:35:08.186Z,9.95
2017-10-16T13:36:14.087Z,10.27
2017-10-16T13:37:19.173Z,9.68
2017-10-16T13:38:25.051Z,9.23
2017-10-16T13:39:30.116Z,8.80
2017-10-16T13:40:35.182Z,9.00
2017-10-16T13:41:40.278Z,9.10
2017-10-16T13:42:45.382Z,9.40
2017-10-16T13:43:50.482Z,8.95
2017-10-16T13:44:55.564Z,9.65
2017-10-16T13:46:01.205Z,9.38
2017-10-16T13:47:07.072Z,10.38
2017-10-16T13:48:11.963Z,9.65
2017-10-16T13:49:17.720Z,10.65
2017-10-16T13:50:23.553Z,10.25
2017-10-16T13:51:29.473Z,10.02
2017-10-16T13:52:34.705Z,10.07
2017-10-16T13:53:40.880Z,9.90
2017-10-16T13:54:46.795Z,10.48
2017-10-16T13:55:52.009Z,10.13
2017-10-16T13:56:57.538Z,9.68
2017-10-16T13:58:02.348Z,9.23
2017-10-16T13:59:07.454Z,9.40
2017-10-16T14:00:12.644Z,9.45
2017-10-16T14:01:18.584Z,9.30
2017-10-16T14:02:23.793Z,9.40
2017-10-16T14:03:28.861Z,9.65
2017-10-16T14:04:35.980Z,9.98
2017-10-16T14:05:41.145Z,10.10
2017-10-16T14:06:49.077Z,9.98
2017-10-16T14:07:54.186Z,9.75
2017-10-16T14:09:00.018Z,9.80
2017-10-16T14:10:05.097Z,9.60
2017-10-16T14:11:10.017Z,9.63
2017-10-16T14:12:15.558Z,9.90